sensor_id;sensor_type;location;lat;lon;timestamp;P1;durP1;ratioP1;P2;durP2;ratioP2
43670;SDS011;29267;50.906;7.248;2023-09-12T00:01:22;20.02;;;9.18;;
43670;SDS011;29267;50.906;7.248;2023-09-12T00:03:49;14.15;;;9.73;;
43670;SDS011;29267;50.906;7.248;2023-09-12T00:06:14;15.07;;;9.35;;
43670;SDS011;29267;50.906;7.248;2023-09-12T00:08:40;13.05;;;9.07;;
43670;SDS011;29267;50.906;7.248;2023-09-12T00:11:07;13.55;;;9.85;;
43670;SDS011;29267;50.906;7.248;2023-09-12T00:13:40;21.42;;;10.98;;
43670;SDS011;29267;50.906;7.248;2023-09-12T00:16:06;15.93;;;8.82;;
43670;SDS011;29267;50.906;7.248;2023-09-12T00:18:36;14.38;;;9.35;;
43670;SDS011;29267;50.906;7.248;2023-09-12T00:21:02;21.20;;;10.52;;
43670;SDS011;29267;50.906;7.248;2023-09-12T00:23:28;21.42;;;10.95;;
43670;SDS011;29267;50.906;7.248;2023-09-12T00:25:54;19.55;;;11.25;;
43670;SDS011;29267;50.906;7.248;2023-09-12T00:28:20;17.33;;;10.80;;
43670;SDS011;29267;50.906;7.248;2023-09-12T00:30:46;23.73;;;11.68;;
43670;SDS011;29267;50.906;7.248;2023-09-12T00:33:11;15.98;;;10.25;;
43670;SDS011;29267;50.906;7.248;2023-09-12T00:35:37;15.40;;;11.00;;
43670;SDS011;29267;50.906;7.248;2023-09-12T00:38:03;16.77;;;11.70;;
43670;SDS011;29267;50.906;7.248;2023-09-12T00:40:29;18.30;;;10.43;;
43670;SDS011;29267;50.906;7.248;2023-09-12T00:42:55;17.05;;;10.75;;
43670;SDS011;29267;50.906;7.248;2023-09-12T00:45:20;17.00;;;10.35;;
43670;SDS011;29267;50.906;7.248;2023-09-12T00:47:46;18.95;;;10.52;;
43670;SDS011;29267;50.906;7.248;2023-09-12T00:50:12;14.43;;;10.13;;
43670;SDS011;29267;50.906;7.248;2023-09-12T00:52:39;23.65;;;12.73;;
43670;SDS011;29267;50.906;7.248;2023-09-12T00:55:07;17.73;;;11.45;;
43670;SDS011;29267;50.906;7.248;2023-09-12T00:57:33;15.70;;;9.52;;
43670;SDS011;29267;50.906;7.248;2023-09-12T01:00:04;19.80;;;12.52;;
43670;SDS011;29267;50.906;7.248;2023-09-12T01:02:40;21.80;;;10.88;;
43670;SDS011;29267;50.906;7.248;2023-09-12T01:05:07;16.35;;;10.50;;
43670;SDS011;29267;50.906;7.248;2023-09-12T01:07:37;14.57;;;10.85;;
43670;SDS011;29267;50.906;7.248;2023-09-12T01:10:04;15.35;;;9.77;;
43670;SDS011;29267;50.906;7.248;2023-09-12T01:12:30;22.15;;;10.23;;
43670;SDS011;29267;50.906;7.248;2023-09-12T01:14:56;23.73;;;12.13;;
43670;SDS011;29267;50.906;7.248;2023-09-12T01:17:22;15.40;;;10.88;;
43670;SDS011;29267;50.906;7.248;2023-09-12T01:19:49;19.23;;;12.95;;
43670;SDS011;29267;50.906;7.248;2023-09-12T01:27:51;20.73;;;14.20;;
43670;SDS011;29267;50.906;7.248;2023-09-12T01:30:15;21.92;;;14.43;;
43670;SDS011;29267;50.906;7.248;2023-09-12T01:32:43;25.80;;;14.90;;
43670;SDS011;29267;50.906;7.248;2023-09-12T01:35:09;20.83;;;14.15;;
43670;SDS011;29267;50.906;7.248;2023-09-12T01:37:34;21.05;;;12.85;;
43670;SDS011;29267;50.906;7.248;2023-09-12T01:40:00;22.90;;;13.25;;
43670;SDS011;29267;50.906;7.248;2023-09-12T01:42:29;22.67;;;13.65;;
43670;SDS011;29267;50.906;7.248;2023-09-12T01:45:00;20.63;;;14.05;;
43670;SDS011;29267;50.906;7.248;2023-09-12T01:47:26;21.85;;;13.32;;
43670;SDS011;29267;50.906;7.248;2023-09-12T01:49:56;19.83;;;13.07;;
43670;SDS011;29267;50.906;7.248;2023-09-12T01:52:24;25.15;;;13.93;;
43670;SDS011;29267;50.906;7.248;2023-09-12T01:54:51;21.42;;;13.25;;
43670;SDS011;29267;50.906;7.248;2023-09-12T01:57:18;19.00;;;12.30;;
43670;SDS011;29267;50.906;7.248;2023-09-12T01:59:47;20.25;;;13.30;;
43670;SDS011;29267;50.906;7.248;2023-09-12T02:02:16;18.48;;;13.02;;
43670;SDS011;29267;50.906;7.248;2023-09-12T02:07:45;18.13;;;10.85;;
43670;SDS011;29267;50.906;7.248;2023-09-12T02:10:11;17.73;;;11.10;;
43670;SDS011;29267;50.906;7.248;2023-09-12T02:12:37;19.77;;;11.25;;
43670;SDS011;29267;50.906;7.248;2023-09-12T02:15:04;20.55;;;12.15;;
43670;SDS011;29267;50.906;7.248;2023-09-12T02:17:30;20.55;;;11.20;;
43670;SDS011;29267;50.906;7.248;2023-09-12T02:19:55;19.42;;;12.40;;
43670;SDS011;29267;50.906;7.248;2023-09-12T02:22:21;18.25;;;11.68;;
43670;SDS011;29267;50.906;7.248;2023-09-12T02:24:46;22.15;;;11.15;;
43670;SDS011;29267;50.906;7.248;2023-09-12T02:27:12;20.17;;;10.65;;
43670;SDS011;29267;50.906;7.248;2023-09-12T02:29:38;17.38;;;11.38;;
43670;SDS011;29267;50.906;7.248;2023-09-12T02:32:04;16.98;;;10.02;;
43670;SDS011;29267;50.906;7.248;2023-09-12T02:34:30;18.65;;;11.68;;
43670;SDS011;29267;50.906;7.248;2023-09-12T02:36:57;17.25;;;12.20;;
43670;SDS011;29267;50.906;7.248;2023-09-12T02:39:22;13.88;;;10.07;;
43670;SDS011;29267;50.906;7.248;2023-09-12T02:41:48;20.40;;;10.65;;
43670;SDS011;29267;50.906;7.248;2023-09-12T02:44:13;16.33;;;10.68;;
43670;SDS011;29267;50.906;7.248;2023-09-12T02:46:39;15.85;;;10.15;;
43670;SDS011;29267;50.906;7.248;2023-09-12T02:49:05;19.45;;;11.10;;
43670;SDS011;29267;50.906;7.248;2023-09-12T02:51:31;16.45;;;11.93;;
43670;SDS011;29267;50.906;7.248;2023-09-12T02:53:56;18.48;;;11.13;;
43670;SDS011;29267;50.906;7.248;2023-09-12T02:56:22;18.48;;;11.23;;
43670;SDS011;29267;50.906;7.248;2023-09-12T02:58:48;17.00;;;11.45;;
43670;SDS011;29267;50.906;7.248;2023-09-12T03:01:17;15.18;;;11.02;;
43670;SDS011;29267;50.906;7.248;2023-09-12T03:03:47;15.68;;;11.80;;
43670;SDS011;29267;50.906;7.248;2023-09-12T03:06:14;18.60;;;11.90;;
43670;SDS011;29267;50.906;7.248;2023-09-12T03:08:40;16.25;;;10.02;;
43670;SDS011;29267;50.906;7.248;2023-09-12T03:11:06;13.13;;;9.90;;
43670;SDS011;29267;50.906;7.248;2023-09-12T03:13:33;14.93;;;9.50;;
43670;SDS011;29267;50.906;7.248;2023-09-12T03:15:58;17.98;;;11.32;;
43670;SDS011;29267;50.906;7.248;2023-09-12T03:18:25;16.77;;;11.65;;
43670;SDS011;29267;50.906;7.248;2023-09-12T03:20:50;20.33;;;11.88;;
43670;SDS011;29267;50.906;7.248;2023-09-12T03:23:16;20.90;;;13.23;;
43670;SDS011;29267;50.906;7.248;2023-09-12T03:25:42;18.70;;;11.05;;
43670;SDS011;29267;50.906;7.248;2023-09-12T03:28:08;18.92;;;12.13;;
43670;SDS011;29267;50.906;7.248;2023-09-12T03:30:34;20.05;;;12.55;;
43670;SDS011;29267;50.906;7.248;2023-09-12T03:33:00;16.75;;;11.18;;
43670;SDS011;29267;50.906;7.248;2023-09-12T03:35:28;18.13;;;11.63;;
43670;SDS011;29267;50.906;7.248;2023-09-12T03:37:54;15.68;;;10.77;;
43670;SDS011;29267;50.906;7.248;2023-09-12T03:40:19;19.10;;;11.80;;
43670;SDS011;29267;50.906;7.248;2023-09-12T03:42:45;19.48;;;12.25;;
43670;SDS011;29267;50.906;7.248;2023-09-12T03:45:11;17.75;;;13.30;;
43670;SDS011;29267;50.906;7.248;2023-09-12T03:47:36;18.95;;;12.75;;
43670;SDS011;29267;50.906;7.248;2023-09-12T03:50:02;22.95;;;13.90;;
43670;SDS011;29267;50.906;7.248;2023-09-12T03:52:28;25.73;;;15.27;;
43670;SDS011;29267;50.906;7.248;2023-09-12T03:54:54;26.42;;;15.07;;
43670;SDS011;29267;50.906;7.248;2023-09-12T03:57:20;23.70;;;14.82;;
43670;SDS011;29267;50.906;7.248;2023-09-12T03:59:45;21.77;;;14.88;;
43670;SDS011;29267;50.906;7.248;2023-09-12T04:02:11;27.35;;;13.23;;
43670;SDS011;29267;50.906;7.248;2023-09-12T04:04:37;21.23;;;15.35;;
43670;SDS011;29267;50.906;7.248;2023-09-12T04:07:03;19.58;;;14.10;;
43670;SDS011;29267;50.906;7.248;2023-09-12T04:09:29;24.10;;;14.88;;
43670;SDS011;29267;50.906;7.248;2023-09-12T04:11:55;24.77;;;14.13;;
43670;SDS011;29267;50.906;7.248;2023-09-12T04:14:21;22.00;;;13.10;;
43670;SDS011;29267;50.906;7.248;2023-09-12T04:16:47;16.65;;;11.88;;
43670;SDS011;29267;50.906;7.248;2023-09-12T04:19:15;23.27;;;13.27;;
43670;SDS011;29267;50.906;7.248;2023-09-12T04:21:41;26.55;;;13.00;;
43670;SDS011;29267;50.906;7.248;2023-09-12T04:24:07;22.45;;;12.70;;
43670;SDS011;29267;50.906;7.248;2023-09-12T04:26:33;22.38;;;13.27;;
43670;SDS011;29267;50.906;7.248;2023-09-12T04:28:58;19.30;;;12.95;;
43670;SDS011;29267;50.906;7.248;2023-09-12T04:31:24;24.58;;;13.77;;
43670;SDS011;29267;50.906;7.248;2023-09-12T04:33:50;17.63;;;11.68;;
43670;SDS011;29267;50.906;7.248;2023-09-12T04:36:17;21.65;;;13.15;;
43670;SDS011;29267;50.906;7.248;2023-09-12T04:38:43;19.08;;;13.80;;
43670;SDS011;29267;50.906;7.248;2023-09-12T04:41:08;20.42;;;13.05;;
43670;SDS011;29267;50.906;7.248;2023-09-12T04:43:39;19.95;;;13.57;;
43670;SDS011;29267;50.906;7.248;2023-09-12T04:46:04;22.13;;;13.02;;
43670;SDS011;29267;50.906;7.248;2023-09-12T04:48:30;21.00;;;13.43;;
43670;SDS011;29267;50.906;7.248;2023-09-12T04:50:56;19.35;;;12.95;;
43670;SDS011;29267;50.906;7.248;2023-09-12T04:53:22;18.42;;;13.93;;
43670;SDS011;29267;50.906;7.248;2023-09-12T04:55:47;20.73;;;14.48;;
43670;SDS011;29267;50.906;7.248;2023-09-12T04:58:13;24.05;;;14.30;;
43670;SDS011;29267;50.906;7.248;2023-09-12T05:00:39;24.65;;;14.45;;
43670;SDS011;29267;50.906;7.248;2023-09-12T05:03:05;21.70;;;14.02;;
43670;SDS011;29267;50.906;7.248;2023-09-12T05:05:30;23.60;;;13.93;;
43670;SDS011;29267;50.906;7.248;2023-09-12T05:07:59;25.90;;;15.05;;
43670;SDS011;29267;50.906;7.248;2023-09-12T05:10:24;28.10;;;15.93;;
43670;SDS011;29267;50.906;7.248;2023-09-12T05:12:50;21.38;;;14.43;;
43670;SDS011;29267;50.906;7.248;2023-09-12T05:15:15;22.10;;;15.18;;
43670;SDS011;29267;50.906;7.248;2023-09-12T05:17:41;24.27;;;15.07;;
43670;SDS011;29267;50.906;7.248;2023-09-12T05:20:08;26.25;;;14.80;;
43670;SDS011;29267;50.906;7.248;2023-09-12T05:22:34;21.70;;;15.77;;
43670;SDS011;29267;50.906;7.248;2023-09-12T05:25:00;25.83;;;16.25;;
43670;SDS011;29267;50.906;7.248;2023-09-12T05:27:25;22.42;;;15.63;;
43670;SDS011;29267;50.906;7.248;2023-09-12T05:29:51;38.65;;;20.48;;
43670;SDS011;29267;50.906;7.248;2023-09-12T05:32:16;35.10;;;19.67;;
43670;SDS011;29267;50.906;7.248;2023-09-12T05:34:42;30.25;;;19.92;;
43670;SDS011;29267;50.906;7.248;2023-09-12T05:37:08;33.80;;;19.52;;
43670;SDS011;29267;50.906;7.248;2023-09-12T05:39:33;34.22;;;20.08;;
43670;SDS011;29267;50.906;7.248;2023-09-12T05:41:59;34.33;;;19.45;;
43670;SDS011;29267;50.906;7.248;2023-09-12T05:44:24;35.30;;;18.98;;
43670;SDS011;29267;50.906;7.248;2023-09-12T05:46:50;39.30;;;19.33;;
43670;SDS011;29267;50.906;7.248;2023-09-12T05:49:15;37.33;;;20.67;;
43670;SDS011;29267;50.906;7.248;2023-09-12T05:51:41;39.13;;;21.30;;
43670;SDS011;29267;50.906;7.248;2023-09-12T05:54:07;36.63;;;19.95;;
43670;SDS011;29267;50.906;7.248;2023-09-12T05:56:33;39.50;;;21.50;;
43670;SDS011;29267;50.906;7.248;2023-09-12T05:58:59;41.38;;;21.55;;
43670;SDS011;29267;50.906;7.248;2023-09-12T06:01:25;37.92;;;22.15;;
43670;SDS011;29267;50.906;7.248;2023-09-12T06:03:50;40.55;;;21.15;;
43670;SDS011;29267;50.906;7.248;2023-09-12T06:06:16;40.15;;;21.13;;
43670;SDS011;29267;50.906;7.248;2023-09-12T06:08:42;43.92;;;22.58;;
43670;SDS011;29267;50.906;7.248;2023-09-12T06:11:07;36.70;;;21.60;;
43670;SDS011;29267;50.906;7.248;2023-09-12T06:13:33;36.33;;;20.25;;
43670;SDS011;29267;50.906;7.248;2023-09-12T06:16:02;38.30;;;20.13;;
43670;SDS011;29267;50.906;7.248;2023-09-12T06:18:28;31.00;;;19.30;;
43670;SDS011;29267;50.906;7.248;2023-09-12T06:20:56;36.25;;;18.63;;
43670;SDS011;29267;50.906;7.248;2023-09-12T06:23:22;29.95;;;17.48;;
43670;SDS011;29267;50.906;7.248;2023-09-12T06:25:48;32.53;;;18.58;;
43670;SDS011;29267;50.906;7.248;2023-09-12T06:28:23;33.65;;;16.40;;
43670;SDS011;29267;50.906;7.248;2023-09-12T06:30:53;26.58;;;16.75;;
43670;SDS011;29267;50.906;7.248;2023-09-12T06:33:18;27.92;;;17.27;;
43670;SDS011;29267;50.906;7.248;2023-09-12T06:35:47;25.90;;;16.70;;
43670;SDS011;29267;50.906;7.248;2023-09-12T06:38:17;26.50;;;15.40;;
43670;SDS011;29267;50.906;7.248;2023-09-12T06:40:43;22.25;;;14.73;;
43670;SDS011;29267;50.906;7.248;2023-09-12T06:43:09;24.67;;;15.25;;
43670;SDS011;29267;50.906;7.248;2023-09-12T06:45:35;20.98;;;13.82;;
43670;SDS011;29267;50.906;7.248;2023-09-12T06:48:02;17.08;;;12.85;;
43670;SDS011;29267;50.906;7.248;2023-09-12T06:50:29;18.90;;;13.00;;
43670;SDS011;29267;50.906;7.248;2023-09-12T06:52:54;21.17;;;11.48;;
43670;SDS011;29267;50.906;7.248;2023-09-12T06:55:20;18.58;;;11.27;;
43670;SDS011;29267;50.906;7.248;2023-09-12T06:57:45;17.83;;;11.55;;
43670;SDS011;29267;50.906;7.248;2023-09-12T07:00:11;16.35;;;9.02;;
43670;SDS011;29267;50.906;7.248;2023-09-12T07:02:38;13.73;;;8.88;;
43670;SDS011;29267;50.906;7.248;2023-09-12T07:05:03;9.77;;;6.95;;
43670;SDS011;29267;50.906;7.248;2023-09-12T07:07:29;14.90;;;7.75;;
43670;SDS011;29267;50.906;7.248;2023-09-12T07:09:56;12.88;;;7.60;;
43670;SDS011;29267;50.906;7.248;2023-09-12T07:12:21;7.35;;;5.25;;
43670;SDS011;29267;50.906;7.248;2023-09-12T07:14:47;13.18;;;5.93;;
43670;SDS011;29267;50.906;7.248;2023-09-12T07:17:15;12.98;;;6.13;;
43670;SDS011;29267;50.906;7.248;2023-09-12T07:19:42;9.20;;;4.80;;
43670;SDS011;29267;50.906;7.248;2023-09-12T07:22:08;7.38;;;4.85;;
43670;SDS011;29267;50.906;7.248;2023-09-12T07:24:34;11.18;;;5.65;;
43670;SDS011;29267;50.906;7.248;2023-09-12T07:26:59;6.70;;;3.88;;
43670;SDS011;29267;50.906;7.248;2023-09-12T07:29:25;5.85;;;4.20;;
43670;SDS011;29267;50.906;7.248;2023-09-12T07:31:52;6.10;;;3.92;;
43670;SDS011;29267;50.906;7.248;2023-09-12T07:34:18;5.63;;;3.75;;
43670;SDS011;29267;50.906;7.248;2023-09-12T07:36:45;7.50;;;4.00;;
43670;SDS011;29267;50.906;7.248;2023-09-12T07:39:11;5.53;;;3.90;;
43670;SDS011;29267;50.906;7.248;2023-09-12T07:41:36;6.78;;;4.20;;
43670;SDS011;29267;50.906;7.248;2023-09-12T07:44:02;6.40;;;3.90;;
43670;SDS011;29267;50.906;7.248;2023-09-12T07:46:29;5.00;;;3.65;;
43670;SDS011;29267;50.906;7.248;2023-09-12T07:48:55;8.70;;;3.50;;
43670;SDS011;29267;50.906;7.248;2023-09-12T07:51:23;7.03;;;2.60;;
43670;SDS011;29267;50.906;7.248;2023-09-12T07:53:50;5.22;;;3.67;;
43670;SDS011;29267;50.906;7.248;2023-09-12T07:56:15;7.13;;;3.53;;
43670;SDS011;29267;50.906;7.248;2023-09-12T07:58:41;6.82;;;3.60;;
43670;SDS011;29267;50.906;7.248;2023-09-12T08:01:07;8.32;;;3.47;;
43670;SDS011;29267;50.906;7.248;2023-09-12T08:03:34;8.07;;;3.58;;
43670;SDS011;29267;50.906;7.248;2023-09-12T08:06:00;8.02;;;3.45;;
43670;SDS011;29267;50.906;7.248;2023-09-12T08:08:25;6.35;;;3.22;;
43670;SDS011;29267;50.906;7.248;2023-09-12T08:10:51;10.88;;;4.57;;
43670;SDS011;29267;50.906;7.248;2023-09-12T08:13:17;8.82;;;6.00;;
43670;SDS011;29267;50.906;7.248;2023-09-12T08:15:42;7.15;;;4.78;;
43670;SDS011;29267;50.906;7.248;2023-09-12T08:18:08;5.65;;;3.70;;
43670;SDS011;29267;50.906;7.248;2023-09-12T08:20:33;6.50;;;3.95;;
43670;SDS011;29267;50.906;7.248;2023-09-12T08:22:59;6.32;;;3.70;;
43670;SDS011;29267;50.906;7.248;2023-09-12T08:25:24;8.25;;;3.60;;
43670;SDS011;29267;50.906;7.248;2023-09-12T08:27:50;6.05;;;3.40;;
43670;SDS011;29267;50.906;7.248;2023-09-12T08:30:16;6.50;;;4.50;;
43670;SDS011;29267;50.906;7.248;2023-09-12T08:32:41;7.05;;;4.15;;
43670;SDS011;29267;50.906;7.248;2023-09-12T08:35:10;5.78;;;3.40;;
43670;SDS011;29267;50.906;7.248;2023-09-12T08:37:40;6.50;;;3.95;;
43670;SDS011;29267;50.906;7.248;2023-09-12T08:40:07;6.18;;;4.35;;
43670;SDS011;29267;50.906;7.248;2023-09-12T08:42:38;8.18;;;3.50;;
43670;SDS011;29267;50.906;7.248;2023-09-12T08:45:05;6.80;;;3.30;;
43670;SDS011;29267;50.906;7.248;2023-09-12T08:47:36;9.00;;;4.32;;
43670;SDS011;29267;50.906;7.248;2023-09-12T08:50:05;6.15;;;3.95;;
43670;SDS011;29267;50.906;7.248;2023-09-12T08:52:32;5.85;;;4.18;;
43670;SDS011;29267;50.906;7.248;2023-09-12T08:54:58;5.40;;;4.10;;
43670;SDS011;29267;50.906;7.248;2023-09-12T08:57:24;6.22;;;4.03;;
43670;SDS011;29267;50.906;7.248;2023-09-12T08:59:49;5.43;;;4.18;;
43670;SDS011;29267;50.906;7.248;2023-09-12T09:02:16;7.13;;;4.50;;
43670;SDS011;29267;50.906;7.248;2023-09-12T09:04:41;4.47;;;3.95;;
43670;SDS011;29267;50.906;7.248;2023-09-12T09:07:08;7.50;;;3.83;;
43670;SDS011;29267;50.906;7.248;2023-09-12T09:09:35;11.18;;;4.88;;
43670;SDS011;29267;50.906;7.248;2023-09-12T09:12:01;8.60;;;4.63;;
43670;SDS011;29267;50.906;7.248;2023-09-12T09:14:31;8.35;;;4.55;;
43670;SDS011;29267;50.906;7.248;2023-09-12T09:16:57;9.10;;;4.82;;
43670;SDS011;29267;50.906;7.248;2023-09-12T09:19:23;11.95;;;5.20;;
43670;SDS011;29267;50.906;7.248;2023-09-12T09:22:09;9.10;;;5.03;;
43670;SDS011;29267;50.906;7.248;2023-09-12T09:24:35;7.43;;;4.38;;
43670;SDS011;29267;50.906;7.248;2023-09-12T09:27:01;7.03;;;4.60;;
43670;SDS011;29267;50.906;7.248;2023-09-12T09:29:27;12.90;;;5.10;;
43670;SDS011;29267;50.906;7.248;2023-09-12T09:32:00;11.57;;;4.00;;
43670;SDS011;29267;50.906;7.248;2023-09-12T09:34:26;9.10;;;4.07;;
43670;SDS011;29267;50.906;7.248;2023-09-12T09:36:56;10.38;;;5.03;;
43670;SDS011;29267;50.906;7.248;2023-09-12T09:39:22;7.43;;;4.57;;
43670;SDS011;29267;50.906;7.248;2023-09-12T09:41:50;6.85;;;4.55;;
43670;SDS011;29267;50.906;7.248;2023-09-12T09:44:17;7.68;;;4.60;;
43670;SDS011;29267;50.906;7.248;2023-09-12T09:46:43;7.28;;;4.90;;
43670;SDS011;29267;50.906;7.248;2023-09-12T09:49:10;7.95;;;4.60;;
43670;SDS011;29267;50.906;7.248;2023-09-12T09:51:45;9.10;;;4.45;;
43670;SDS011;29267;50.906;7.248;2023-09-12T09:54:11;7.72;;;5.20;;
43670;SDS011;29267;50.906;7.248;2023-09-12T09:56:50;9.43;;;5.40;;
43670;SDS011;29267;50.906;7.248;2023-09-12T09:59:21;9.25;;;4.55;;
43670;SDS011;29267;50.906;7.248;2023-09-12T10:01:48;12.02;;;5.55;;
43670;SDS011;29267;50.906;7.248;2023-09-12T10:04:15;9.32;;;5.78;;
43670;SDS011;29267;50.906;7.248;2023-09-12T10:06:42;8.07;;;4.65;;
43670;SDS011;29267;50.906;7.248;2023-09-12T10:09:10;10.48;;;5.50;;
43670;SDS011;29267;50.906;7.248;2023-09-12T10:11:37;10.05;;;5.57;;
43670;SDS011;29267;50.906;7.248;2023-09-12T10:14:04;10.77;;;4.47;;
43670;SDS011;29267;50.906;7.248;2023-09-12T10:16:31;7.82;;;4.90;;
43670;SDS011;29267;50.906;7.248;2023-09-12T10:19:21;9.38;;;6.53;;
43670;SDS011;29267;50.906;7.248;2023-09-12T10:21:55;11.57;;;6.32;;
43670;SDS011;29267;50.906;7.248;2023-09-12T10:24:29;11.25;;;5.80;;
43670;SDS011;29267;50.906;7.248;2023-09-12T10:26:55;11.55;;;5.40;;
43670;SDS011;29267;50.906;7.248;2023-09-12T10:29:21;13.48;;;6.45;;
43670;SDS011;29267;50.906;7.248;2023-09-12T10:31:47;14.95;;;6.03;;
43670;SDS011;29267;50.906;7.248;2023-09-12T10:34:14;13.45;;;5.60;;
43670;SDS011;29267;50.906;7.248;2023-09-12T10:36:41;9.75;;;5.22;;
43670;SDS011;29267;50.906;7.248;2023-09-12T10:39:08;8.68;;;5.53;;
43670;SDS011;29267;50.906;7.248;2023-09-12T10:41:39;9.50;;;5.97;;
43670;SDS011;29267;50.906;7.248;2023-09-12T10:44:12;9.93;;;5.55;;
43670;SDS011;29267;50.906;7.248;2023-09-12T10:46:41;13.88;;;5.05;;
43670;SDS011;29267;50.906;7.248;2023-09-12T10:49:08;10.50;;;5.63;;
43670;SDS011;29267;50.906;7.248;2023-09-12T10:51:43;9.02;;;5.85;;
43670;SDS011;29267;50.906;7.248;2023-09-12T10:54:22;12.35;;;6.60;;
43670;SDS011;29267;50.906;7.248;2023-09-12T10:57:05;13.02;;;6.25;;
43670;SDS011;29267;50.906;7.248;2023-09-12T10:59:32;11.77;;;6.40;;
43670;SDS011;29267;50.906;7.248;2023-09-12T11:04:59;13.57;;;6.18;;
43670;SDS011;29267;50.906;7.248;2023-09-12T11:12:42;13.10;;;5.82;;
43670;SDS011;29267;50.906;7.248;2023-09-12T11:15:08;10.88;;;6.15;;
43670;SDS011;29267;50.906;7.248;2023-09-12T11:17:42;11.25;;;6.88;;
43670;SDS011;29267;50.906;7.248;2023-09-12T11:20:11;12.50;;;5.82;;
43670;SDS011;29267;50.906;7.248;2023-09-12T11:22:45;6.68;;;5.57;;
43670;SDS011;29267;50.906;7.248;2023-09-12T11:30:23;10.23;;;6.10;;
43670;SDS011;29267;50.906;7.248;2023-09-12T11:32:56;8.77;;;5.90;;
43670;SDS011;29267;50.906;7.248;2023-09-12T11:35:23;9.73;;;5.60;;
43670;SDS011;29267;50.906;7.248;2023-09-12T11:37:51;12.10;;;5.60;;
43670;SDS011;29267;50.906;7.248;2023-09-12T11:40:23;12.05;;;5.47;;
43670;SDS011;29267;50.906;7.248;2023-09-12T11:42:58;10.00;;;5.50;;
43670;SDS011;29267;50.906;7.248;2023-09-12T11:45:24;10.02;;;5.68;;
43670;SDS011;29267;50.906;7.248;2023-09-12T11:47:50;8.95;;;5.05;;
43670;SDS011;29267;50.906;7.248;2023-09-12T11:53:21;11.30;;;6.22;;
43670;SDS011;29267;50.906;7.248;2023-09-12T11:55:50;11.15;;;5.60;;
43670;SDS011;29267;50.906;7.248;2023-09-12T11:58:21;13.48;;;5.05;;
43670;SDS011;29267;50.906;7.248;2023-09-12T12:00:48;12.77;;;5.72;;
43670;SDS011;29267;50.906;7.248;2023-09-12T12:03:16;12.23;;;4.95;;
43670;SDS011;29267;50.906;7.248;2023-09-12T12:05:43;11.15;;;4.60;;
43670;SDS011;29267;50.906;7.248;2023-09-12T12:08:12;12.07;;;5.40;;
43670;SDS011;29267;50.906;7.248;2023-09-12T12:10:38;8.88;;;5.53;;
43670;SDS011;29267;50.906;7.248;2023-09-12T12:13:05;9.10;;;5.35;;
43670;SDS011;29267;50.906;7.248;2023-09-12T12:15:31;13.70;;;5.43;;
43670;SDS011;29267;50.906;7.248;2023-09-12T12:17:57;11.45;;;5.28;;
43670;SDS011;29267;50.906;7.248;2023-09-12T12:20:23;8.80;;;5.47;;
43670;SDS011;29267;50.906;7.248;2023-09-12T12:22:49;9.85;;;4.75;;
43670;SDS011;29267;50.906;7.248;2023-09-12T12:25:17;6.32;;;4.38;;
43670;SDS011;29267;50.906;7.248;2023-09-12T12:27:43;10.05;;;4.93;;
43670;SDS011;29267;50.906;7.248;2023-09-12T12:30:10;9.10;;;4.88;;
43670;SDS011;29267;50.906;7.248;2023-09-12T12:32:40;9.25;;;5.15;;
43670;SDS011;29267;50.906;7.248;2023-09-12T12:35:20;13.70;;;4.85;;
43670;SDS011;29267;50.906;7.248;2023-09-12T12:37:50;11.65;;;5.13;;
43670;SDS011;29267;50.906;7.248;2023-09-12T12:40:23;9.25;;;4.53;;
43670;SDS011;29267;50.906;7.248;2023-09-12T12:42:48;7.68;;;4.18;;
43670;SDS011;29267;50.906;7.248;2023-09-12T12:45:15;7.72;;;4.60;;
43670;SDS011;29267;50.906;7.248;2023-09-12T12:47:42;8.30;;;4.50;;
43670;SDS011;29267;50.906;7.248;2023-09-12T12:52:39;9.88;;;5.05;;
43670;SDS011;29267;50.906;7.248;2023-09-12T12:55:14;8.82;;;4.63;;
43670;SDS011;29267;50.906;7.248;2023-09-12T12:57:42;9.45;;;4.65;;
43670;SDS011;29267;50.906;7.248;2023-09-12T13:00:09;8.68;;;4.50;;
43670;SDS011;29267;50.906;7.248;2023-09-12T13:02:39;7.88;;;4.90;;
43670;SDS011;29267;50.906;7.248;2023-09-12T13:05:06;8.75;;;5.03;;
43670;SDS011;29267;50.906;7.248;2023-09-12T13:07:51;7.13;;;4.82;;
43670;SDS011;29267;50.906;7.248;2023-09-12T13:10:17;8.80;;;4.95;;
43670;SDS011;29267;50.906;7.248;2023-09-12T13:12:43;7.97;;;5.20;;
43670;SDS011;29267;50.906;7.248;2023-09-12T13:15:10;7.63;;;4.50;;
43670;SDS011;29267;50.906;7.248;2023-09-12T13:17:37;9.13;;;4.63;;
43670;SDS011;29267;50.906;7.248;2023-09-12T13:20:03;7.75;;;4.32;;
43670;SDS011;29267;50.906;7.248;2023-09-12T13:22:29;11.93;;;4.95;;
43670;SDS011;29267;50.906;7.248;2023-09-12T13:24:54;10.35;;;4.68;;
43670;SDS011;29267;50.906;7.248;2023-09-12T13:27:20;9.73;;;4.57;;
43670;SDS011;29267;50.906;7.248;2023-09-12T13:29:46;10.23;;;4.57;;
43670;SDS011;29267;50.906;7.248;2023-09-12T13:32:13;5.53;;;4.38;;
43670;SDS011;29267;50.906;7.248;2023-09-12T13:34:40;9.55;;;4.55;;
43670;SDS011;29267;50.906;7.248;2023-09-12T13:37:06;14.00;;;4.35;;
43670;SDS011;29267;50.906;7.248;2023-09-12T13:39:31;9.55;;;4.50;;
43670;SDS011;29267;50.906;7.248;2023-09-12T13:41:57;8.40;;;4.22;;
43670;SDS011;29267;50.906;7.248;2023-09-12T13:44:24;9.20;;;4.15;;
43670;SDS011;29267;50.906;7.248;2023-09-12T13:46:50;6.88;;;4.72;;
43670;SDS011;29267;50.906;7.248;2023-09-12T13:49:16;8.65;;;4.75;;
43670;SDS011;29267;50.906;7.248;2023-09-12T13:51:41;5.63;;;4.47;;
43670;SDS011;29267;50.906;7.248;2023-09-12T13:54:07;7.30;;;4.93;;
43670;SDS011;29267;50.906;7.248;2023-09-12T13:56:39;11.15;;;4.97;;
43670;SDS011;29267;50.906;7.248;2023-09-12T13:59:08;6.60;;;4.53;;
43670;SDS011;29267;50.906;7.248;2023-09-12T14:01:34;9.25;;;4.68;;
43670;SDS011;29267;50.906;7.248;2023-09-12T14:03:59;7.15;;;4.35;;
43670;SDS011;29267;50.906;7.248;2023-09-12T14:06:25;9.07;;;4.10;;
43670;SDS011;29267;50.906;7.248;2023-09-12T14:08:51;7.10;;;4.13;;
43670;SDS011;29267;50.906;7.248;2023-09-12T14:11:17;13.48;;;4.57;;
43670;SDS011;29267;50.906;7.248;2023-09-12T14:13:43;8.35;;;4.82;;
43670;SDS011;29267;50.906;7.248;2023-09-12T14:16:08;15.18;;;4.85;;
43670;SDS011;29267;50.906;7.248;2023-09-12T14:18:34;8.57;;;4.25;;
43670;SDS011;29267;50.906;7.248;2023-09-12T14:21:00;4.43;;;3.75;;
43670;SDS011;29267;50.906;7.248;2023-09-12T14:23:25;7.07;;;4.32;;
43670;SDS011;29267;50.906;7.248;2023-09-12T14:25:51;5.68;;;3.88;;
43670;SDS011;29267;50.906;7.248;2023-09-12T14:28:17;11.27;;;4.60;;
43670;SDS011;29267;50.906;7.248;2023-09-12T14:30:42;5.65;;;4.10;;
43670;SDS011;29267;50.906;7.248;2023-09-12T14:33:10;8.00;;;4.60;;
43670;SDS011;29267;50.906;7.248;2023-09-12T14:35:37;6.78;;;3.80;;
43670;SDS011;29267;50.906;7.248;2023-09-12T14:38:02;7.70;;;4.00;;
43670;SDS011;29267;50.906;7.248;2023-09-12T14:40:29;7.45;;;4.30;;
43670;SDS011;29267;50.906;7.248;2023-09-12T14:42:55;11.65;;;4.68;;
43670;SDS011;29267;50.906;7.248;2023-09-12T14:45:20;7.53;;;4.68;;
43670;SDS011;29267;50.906;7.248;2023-09-12T14:47:46;8.27;;;4.13;;
43670;SDS011;29267;50.906;7.248;2023-09-12T14:50:12;9.73;;;3.63;;
43670;SDS011;29267;50.906;7.248;2023-09-12T14:52:37;10.35;;;4.72;;
43670;SDS011;29267;50.906;7.248;2023-09-12T14:55:04;8.68;;;4.38;;
43670;SDS011;29267;50.906;7.248;2023-09-12T14:57:32;6.13;;;4.07;;
43670;SDS011;29267;50.906;7.248;2023-09-12T14:59:58;9.82;;;4.45;;